createdAt,value
2022-09-13T05:02:56.101Z,100450.94
2022-09-13T05:08:16.839Z,100452.00
2022-09-13T05:13:37.880Z,100441.16
2022-09-13T05:18:59.410Z,100447.63
2022-09-13T05:24:20.447Z,100453.28
2022-09-13T05:29:41.187Z,100449.88
2022-09-13T05:35:02.071Z,100435.25
2022-09-13T05:40:22.930Z,100440.50
2022-09-13T05:45:43.591Z,100437.13
2022-09-13T05:51:08.726Z,100444.47
2022-09-13T05:56:30.251Z,100440.78
2022-09-13T06:01:51.388Z,100437.91
2022-09-13T06:07:12.445Z,100433.56
2022-09-13T06:12:33.287Z,100434.25
2022-09-13T06:17:54.028Z,100441.91
2022-09-13T06:23:15.332Z,100441.44
2022-09-13T06:28:37.739Z,100455.97
2022-09-13T06:34:00.941Z,100457.53
2022-09-13T06:39:21.640Z,100452.13
2022-09-13T06:44:42.445Z,100475.47
2022-09-13T06:50:02.850Z,100444.63
2022-09-13T06:55:23.559Z,100446.88
2022-09-13T07:00:44.507Z,100430.88
2022-09-13T07:06:22.209Z,100422.50
2022-09-13T07:11:45.238Z,100413.13
2022-09-13T07:17:06.350Z,100411.91
2022-09-13T07:22:27.958Z,100400.91
2022-09-13T07:27:48.800Z,100418.94
2022-09-13T07:33:09.480Z,100417.66
2022-09-13T07:38:30.437Z,100405.19
2022-09-13T07:43:52.396Z,100403.00
2022-09-13T07:49:15.052Z,100407.53
2022-09-13T07:54:38.083Z,100405.00
2022-09-13T07:59:59.062Z,100399.25
2022-09-13T08:05:19.760Z,100398.09
2022-09-13T08:10:40.639Z,100402.63
2022-09-13T08:16:02.808Z,100415.13
2022-09-13T08:21:25.341Z,100406.72
2022-09-13T08:26:46.443Z,100402.03
2022-09-13T08:32:07.231Z,100399.41
2022-09-13T08:37:28.051Z,100383.97
2022-09-13T08:43:08.197Z,100388.94
2022-09-13T08:48:39.942Z,100393.16
2022-09-13T08:54:01.051Z,100407.84
2022-09-13T08:59:46.349Z,100394.75
2022-09-13T09:05:29.173Z,100395.59
2022-09-13T09:10:53.274Z,100396.84
2022-09-13T09:16:14.197Z,100388.16
2022-09-13T09:21:35.022Z,100395.31
2022-09-13T09:26:58.186Z,100392.41
2022-09-13T09:32:41.152Z,100391.75
2022-09-13T09:38:37.256Z,100378.88
2022-09-13T09:44:21.235Z,100384.06
2022-09-13T09:50:10.120Z,100384.81
2022-09-13T09:55:32.298Z,100375.97
2022-09-13T10:00:56.008Z,100363.09
2022-09-13T10:06:21.791Z,100367.50
2022-09-13T10:11:59.149Z,100353.31
2022-09-13T10:17:28.358Z,100368.00
2022-09-13T10:23:13.645Z,100355.91
2022-09-13T10:28:44.023Z,100360.56
2022-09-13T10:34:13.707Z,100362.03
2022-09-13T10:39:36.755Z,100353.72
2022-09-13T10:45:22.278Z,100355.28
2022-09-13T10:51:21.291Z,100357.34
2022-09-13T10:56:43.892Z,100353.59
2022-09-13T11:02:29.348Z,100339.53
2022-09-13T11:08:02.054Z,100336.16
2022-09-13T11:13:46.013Z,100333.94
2022-09-13T11:19:27.074Z,100334.78
2022-09-13T11:25:03.240Z,100323.31
2022-09-13T11:30:29.842Z,100325.50
2022-09-13T11:36:21.843Z,100316.88
2022-09-13T11:41:53.462Z,100333.28
2022-09-13T11:47:17.161Z,100325.59
2022-09-13T11:53:00.136Z,100329.69
2022-09-13T11:58:37.940Z,100332.44
2022-09-13T12:04:13.930Z,100328.44
2022-09-13T12:09:50.019Z,100338.44
2022-09-13T12:15:30.392Z,100339.94
2022-09-13T12:21:10.287Z,100333.25
2022-09-13T12:26:39.789Z,100329.84
2022-09-13T12:32:04.943Z,100340.63
2022-09-13T12:37:29.003Z,100332.31
2022-09-13T12:43:02.099Z,100337.50
2022-09-13T12:48:41.959Z,100333.06
2022-09-13T12:54:36.963Z,100319.56
2022-09-13T13:00:20.750Z,100302.41
2022-09-13T13:05:43.505Z,100300.50
2022-09-13T13:11:06.692Z,100309.72
2022-09-13T13:16:37.808Z,100308.69
2022-09-13T13:22:35.947Z,100302.50
2022-09-13T13:27:58.571Z,100298.41
2022-09-13T13:33:23.375Z,100289.34
2022-09-13T13:38:49.232Z,100293.59
2022-09-13T13:44:31.742Z,100274.56
2022-09-13T13:50:12.758Z,100268.88
2022-09-13T13:55:33.920Z,100263.63
2022-09-13T14:00:55.894Z,100264.47
2022-09-13T14:06:28.337Z,100263.50
2022-09-13T14:12:00.249Z,100264.44
2022-09-13T14:17:29.455Z,100268.00
2022-09-13T14:22:50.296Z,100268.75
2022-09-13T14:28:20.019Z,100270.34
2022-09-13T14:33:41.244Z,100264.25
2022-09-13T14:39:02.311Z,100257.19
2022-09-13T14:44:28.910Z,100255.31
2022-09-13T14:49:58.721Z,100247.19
2022-09-13T14:55:25.767Z,100245.22
2022-09-13T15:00:55.896Z,100252.91
2022-09-13T15:06:25.690Z,100235.34
2022-09-13T15:11:53.307Z,100239.47
2022-09-13T15:17:14.617Z,100229.72
2022-09-13T15:22:35.725Z,100228.81
2022-09-13T15:27:57.671Z,100219.25
2022-09-13T15:33:30.570Z,100226.13
2022-09-13T15:39:16.944Z,100220.84
2022-09-13T15:44:41.959Z,100223.34
2022-09-13T15:50:03.448Z,100218.84
2022-09-13T15:55:25.962Z,100214.38
2022-09-13T16:00:47.138Z,100209.19
2022-09-13T16:06:09.579Z,100205.75
2022-09-13T16:11:30.503Z,100201.31
2022-09-13T16:16:52.112Z,100202.09
2022-09-13T16:22:13.060Z,100202.72
2022-09-13T16:27:34.313Z,100200.84
2022-09-13T16:32:55.396Z,100206.69
2022-09-13T16:38:16.230Z,100204.72
2022-09-13T16:43:37.157Z,100198.41
2022-09-13T16:48:58.092Z,100204.22
2022-09-13T16:54:19.294Z,100205.72
2022-09-13T16:59:41.403Z,100208.88
2022-09-13T17:05:01.945Z,100212.28
2022-09-13T17:10:22.899Z,100208.66
2022-09-13T17:15:43.762Z,100208.47
2022-09-13T17:21:04.662Z,100209.16
2022-09-13T17:26:25.547Z,100212.28
2022-09-13T17:31:46.878Z,100209.56
2022-09-13T17:37:07.624Z,100214.63
2022-09-13T17:42:28.390Z,100211.13
2022-09-13T17:47:53.020Z,100214.50
2022-09-13T17:53:13.787Z,100229.13
2022-09-13T17:58:35.501Z,100223.94
2022-09-13T18:03:56.360Z,100232.53
2022-09-13T18:09:17.296Z,100228.97
2022-09-13T18:14:39.030Z,100233.97
2022-09-13T18:19:59.614Z,100236.44
2022-09-13T18:25:23.505Z,100244.88
2022-09-13T18:30:52.128Z,100243.06
2022-09-13T18:36:15.944Z,100240.28
2022-09-13T18:41:40.683Z,100240.94
2022-09-13T18:47:02.947Z,100251.16
2022-09-13T18:52:23.974Z,100254.47
2022-09-13T18:57:44.603Z,100254.31
2022-09-13T19:03:12.322Z,100256.81
2022-09-13T19:08:33.614Z,100262.69
2022-09-13T19:13:54.552Z,100265.09
2022-09-13T19:19:16.025Z,100259.69
2022-09-13T19:24:38.376Z,100259.53
2022-09-13T19:29:59.312Z,100267.09
2022-09-13T19:35:22.065Z,100265.22
2022-09-13T19:40:43.197Z,100261.53
2022-09-13T19:46:07.160Z,100254.47
2022-09-13T19:51:30.730Z,100268.97
2022-09-13T19:56:51.887Z,100263.53
2022-09-13T20:02:13.867Z,100265.97
2022-09-13T20:07:34.829Z,100269.97
2022-09-13T20:12:55.997Z,100279.28
2022-09-13T20:18:17.245Z,100269.56
2022-09-13T20:23:39.781Z,100282.31
2022-09-13T20:29:03.853Z,100281.28
2022-09-13T20:34:25.076Z,100283.75
2022-09-13T20:39:45.673Z,100275.88
2022-09-13T20:45:07.456Z,100274.78
2022-09-13T20:50:28.961Z,100265.91
2022-09-13T20:55:49.974Z,100268.44
2022-09-13T21:01:14.249Z,100264.81
2022-09-13T21:07:02.645Z,100274.91
2022-09-13T21:12:24.447Z,100274.69
2022-09-13T21:17:45.205Z,100277.00
2022-09-13T21:23:06.277Z,100275.94
2022-09-13T21:28:27.121Z,100277.56
2022-09-13T21:33:47.906Z,100280.72
2022-09-13T21:39:09.171Z,100270.94
2022-09-13T21:44:30.967Z,100270.00
